createdAt,value
2023-03-30T00:00:52.097Z,8.20
2023-03-30T00:03:19.732Z,8.40
2023-03-30T00:05:46.876Z,6.00
2023-03-30T00:08:14.698Z,7.90
2023-03-30T00:10:45.106Z,6.28
2023-03-30T00:13:13.280Z,8.23
2023-03-30T00:15:41.378Z,6.63
2023-03-30T00:18:09.485Z,6.75
2023-03-30T00:20:37.846Z,6.90
2023-03-30T00:23:04.817Z,8.52
2023-03-30T00:25:31.694Z,6.57
2023-03-30T00:27:58.519Z,6.75
2023-03-30T00:30:26.138Z,6.97
2023-03-30T00:32:54.069Z,6.68
2023-03-30T00:35:21.211Z,11.55
2023-03-30T00:37:49.803Z,7.53
2023-03-30T00:40:20.304Z,7.05
2023-03-30T00:42:47.688Z,8.00
2023-03-30T00:45:18.109Z,8.10
2023-03-30T00:47:54.600Z,8.05
2023-03-30T00:50:22.580Z,8.30
2023-03-30T00:52:52.528Z,6.38
2023-03-30T00:55:21.784Z,9.75
2023-03-30T00:57:49.685Z,7.10
2023-03-30T01:00:18.885Z,8.65
2023-03-30T01:02:57.425Z,6.63
2023-03-30T01:05:25.199Z,8.35
2023-03-30T01:07:52.275Z,9.15
2023-03-30T01:10:19.456Z,6.45
2023-03-30T01:12:46.289Z,7.57
2023-03-30T01:15:13.543Z,7.30
2023-03-30T01:17:53.392Z,8.00
2023-03-30T01:20:34.749Z,7.85
2023-03-30T01:23:35.601Z,8.10
2023-03-30T01:26:20.838Z,11.43
2023-03-30T01:28:53.433Z,8.30
2023-03-30T01:31:27.503Z,9.02
2023-03-30T01:34:16.314Z,7.63
2023-03-30T01:37:06.593Z,7.82
2023-03-30T01:39:48.584Z,8.65
2023-03-30T01:42:41.777Z,9.85
2023-03-30T01:45:42.427Z,7.88
2023-03-30T01:48:14.025Z,9.73
2023-03-30T01:50:43.385Z,8.38
2023-03-30T01:53:27.266Z,8.52
2023-03-30T01:56:06.355Z,7.75
2023-03-30T01:58:38.154Z,11.45
2023-03-30T02:01:07.291Z,8.07
2023-03-30T02:03:39.125Z,7.65
2023-03-30T02:06:14.693Z,6.68
2023-03-30T02:08:41.695Z,7.57
2023-03-30T02:11:09.242Z,8.48
2023-03-30T02:13:36.913Z,8.77
2023-03-30T02:16:07.716Z,7.35
2023-03-30T02:18:38.411Z,8.75
2023-03-30T02:21:05.766Z,7.15
2023-03-30T02:23:36.054Z,9.82
2023-03-30T02:26:03.019Z,6.72
2023-03-30T02:28:29.820Z,7.68
2023-03-30T02:30:57.067Z,8.27
2023-03-30T02:34:04.708Z,9.05
2023-03-30T02:36:45.596Z,7.50
2023-03-30T02:39:39.580Z,7.85
2023-03-30T02:42:20.725Z,8.65
2023-03-30T02:44:58.603Z,8.25
2023-03-30T02:47:34.450Z,6.82
2023-03-30T02:50:18.240Z,6.40
2023-03-30T02:53:10.625Z,7.88
2023-03-30T02:56:04.082Z,7.13
2023-03-30T02:59:03.923Z,8.05
2023-03-30T03:01:48.317Z,7.38
2023-03-30T03:04:17.678Z,8.82
2023-03-30T03:07:20.939Z,8.55
2023-03-30T03:09:48.294Z,10.63
2023-03-30T03:12:15.218Z,7.60
2023-03-30T03:14:43.453Z,8.18
2023-03-30T03:17:13.908Z,8.52
2023-03-30T03:19:44.803Z,8.40
2023-03-30T03:22:12.052Z,9.07
2023-03-30T03:24:39.868Z,8.15
2023-03-30T03:27:27.580Z,8.63
2023-03-30T03:30:05.872Z,8.27
2023-03-30T03:32:39.092Z,7.97
2023-03-30T03:35:06.187Z,9.35
2023-03-30T03:37:34.445Z,7.45
2023-03-30T03:40:01.409Z,7.53
2023-03-30T03:42:29.038Z,6.10
2023-03-30T03:45:11.624Z,7.80
2023-03-30T03:47:51.721Z,7.30
2023-03-30T03:50:23.864Z,8.63
2023-03-30T03:52:51.989Z,8.18
2023-03-30T03:55:18.961Z,8.70
2023-03-30T03:57:49.695Z,6.88
2023-03-30T04:00:16.758Z,6.55
2023-03-30T04:02:46.906Z,7.10
2023-03-30T04:05:13.844Z,6.68
2023-03-30T04:07:40.691Z,6.80
2023-03-30T04:10:08.146Z,7.10
2023-03-30T04:12:44.075Z,7.93
2023-03-30T04:15:45.629Z,8.10
2023-03-30T04:18:33.698Z,5.78
2023-03-30T04:21:13.470Z,8.35
2023-03-30T04:23:58.762Z,6.45
2023-03-30T04:26:49.128Z,7.30
2023-03-30T04:29:29.996Z,8.25
2023-03-30T04:32:20.854Z,8.02
2023-03-30T04:34:56.049Z,7.07
2023-03-30T04:37:38.589Z,10.05
2023-03-30T04:40:17.680Z,7.22
2023-03-30T04:43:04.769Z,8.10
2023-03-30T04:45:48.534Z,7.72
2023-03-30T04:48:33.070Z,10.13
2023-03-30T04:51:09.023Z,12.63
2023-03-30T04:53:54.452Z,9.95
2023-03-30T04:56:41.027Z,9.63
2023-03-30T04:59:37.900Z,6.95
2023-03-30T05:02:37.335Z,10.27
2023-03-30T05:05:07.570Z,9.95
2023-03-30T05:08:06.782Z,10.95
2023-03-30T05:10:47.342Z,10.02
2023-03-30T05:13:26.136Z,14.23
2023-03-30T05:16:05.510Z,10.27
2023-03-30T05:19:04.814Z,11.73
2023-03-30T05:21:49.657Z,11.13
2023-03-30T05:24:34.667Z,9.63
2023-03-30T05:27:33.966Z,9.75
2023-03-30T05:30:23.668Z,12.80
2023-03-30T05:33:10.325Z,10.80
2023-03-30T05:36:09.994Z,10.15
2023-03-30T05:38:48.150Z,10.98
2023-03-30T05:41:31.921Z,12.55
2023-03-30T05:44:11.521Z,10.02
2023-03-30T05:47:10.672Z,9.95
2023-03-30T05:50:03.242Z,9.00
2023-03-30T05:52:36.661Z,10.25
2023-03-30T05:55:24.179Z,13.05
2023-03-30T05:58:12.282Z,9.43
2023-03-30T06:01:06.152Z,8.55
2023-03-30T06:03:39.431Z,8.52
2023-03-30T06:06:08.349Z,12.07
2023-03-30T06:08:35.885Z,10.85
2023-03-30T06:11:05.091Z,11.40
2023-03-30T06:13:43.336Z,9.25
2023-03-30T06:16:10.257Z,10.18
2023-03-30T06:18:37.961Z,10.85
2023-03-30T06:21:08.569Z,12.25
2023-03-30T06:23:49.759Z,10.50
2023-03-30T06:26:20.756Z,13.63
2023-03-30T06:28:48.688Z,11.77
2023-03-30T06:31:15.667Z,16.42
2023-03-30T06:33:43.810Z,11.77
2023-03-30T06:36:15.016Z,11.40
2023-03-30T06:38:44.948Z,13.63
2023-03-30T06:41:12.958Z,11.25
2023-03-30T06:43:43.360Z,10.55
2023-03-30T06:46:16.085Z,10.45
2023-03-30T06:48:48.686Z,12.23
2023-03-30T06:51:50.996Z,9.65
2023-03-30T06:54:20.537Z,14.63
2023-03-30T06:56:54.968Z,8.85
2023-03-30T06:59:23.268Z,9.20
2023-03-30T07:02:22.445Z,8.90
2023-03-30T07:05:03.282Z,11.68
2023-03-30T07:07:43.316Z,7.63
2023-03-30T07:10:11.819Z,9.02
2023-03-30T07:12:39.879Z,13.18
2023-03-30T07:15:08.265Z,8.25
2023-03-30T07:17:36.621Z,10.77
2023-03-30T07:20:06.149Z,9.00
2023-03-30T07:22:34.985Z,9.18
2023-03-30T07:25:02.095Z,8.85
2023-03-30T07:27:29.406Z,8.55
2023-03-30T07:30:07.200Z,6.75
2023-03-30T07:32:41.874Z,8.38
2023-03-30T07:35:09.689Z,6.35
2023-03-30T07:37:40.183Z,5.97
2023-03-30T07:40:09.303Z,6.10
2023-03-30T07:42:37.367Z,8.05
2023-03-30T07:45:05.325Z,10.40
2023-03-30T07:47:32.420Z,6.63
2023-03-30T07:49:59.394Z,8.07
2023-03-30T07:52:27.731Z,5.60
2023-03-30T07:55:01.942Z,6.95
2023-03-30T07:57:42.565Z,7.68
2023-03-30T08:00:17.084Z,6.10
2023-03-30T08:03:04.967Z,4.82
2023-03-30T08:05:32.025Z,7.60
2023-03-30T08:08:19.320Z,6.22
2023-03-30T08:10:47.395Z,6.88
2023-03-30T08:13:15.350Z,5.55
2023-03-30T08:15:43.550Z,4.88
2023-03-30T08:18:13.173Z,6.85
2023-03-30T08:20:41.710Z,6.50
2023-03-30T08:23:12.249Z,5.00
2023-03-30T08:25:39.270Z,4.32
2023-03-30T08:28:09.255Z,4.90
2023-03-30T08:30:36.072Z,7.38
2023-03-30T08:33:03.437Z,6.22
2023-03-30T08:35:30.503Z,5.53
2023-03-30T08:37:57.388Z,6.20
2023-03-30T08:40:24.400Z,7.55
2023-03-30T08:43:21.620Z,7.07
2023-03-30T08:45:48.607Z,5.22
2023-03-30T08:48:23.934Z,5.20
2023-03-30T08:50:57.491Z,6.80
2023-03-30T08:53:24.614Z,6.88
2023-03-30T08:56:00.109Z,14.48
2023-03-30T08:58:45.406Z,8.48
2023-03-30T09:01:21.715Z,6.07
2023-03-30T09:04:19.585Z,5.88
2023-03-30T09:06:59.666Z,7.65
2023-03-30T09:09:29.529Z,4.75
2023-03-30T09:12:02.842Z,4.60
2023-03-30T09:14:36.592Z,6.88
2023-03-30T09:17:18.939Z,7.85
2023-03-30T09:19:51.100Z,6.15
2023-03-30T09:22:19.035Z,5.35
2023-03-30T09:24:46.553Z,8.23
2023-03-30T09:27:27.272Z,7.35
2023-03-30T09:29:56.061Z,5.40
2023-03-30T09:32:34.327Z,9.80
2023-03-30T09:35:12.208Z,7.53
2023-03-30T09:37:39.111Z,8.55
2023-03-30T09:40:21.344Z,7.28
2023-03-30T09:42:55.687Z,4.75
2023-03-30T09:45:30.733Z,6.35
2023-03-30T09:48:08.906Z,9.35
2023-03-30T09:50:44.593Z,5.18
2023-03-30T09:53:27.121Z,4.35
2023-03-30T09:56:12.917Z,5.68
2023-03-30T09:58:39.704Z,5.40
2023-03-30T10:01:08.624Z,6.07
2023-03-30T10:03:36.200Z,10.80
2023-03-30T10:06:03.343Z,7.32
2023-03-30T10:08:31.007Z,8.07
2023-03-30T10:10:59.025Z,6.90
2023-03-30T10:13:39.236Z,14.30
2023-03-30T10:16:08.728Z,9.57
2023-03-30T10:18:44.260Z,11.50
2023-03-30T10:21:13.960Z,7.18
2023-03-30T10:23:43.341Z,5.57
2023-03-30T10:26:17.861Z,6.50
2023-03-30T10:29:01.412Z,6.53
2023-03-30T10:31:28.538Z,6.28
2023-03-30T10:33:58.423Z,4.00
2023-03-30T10:36:31.173Z,8.38
2023-03-30T10:39:25.944Z,7.65
2023-03-30T10:41:53.175Z,5.82
2023-03-30T10:44:29.002Z,9.85
2023-03-30T10:47:08.376Z,8.45
2023-03-30T10:49:44.830Z,7.00
2023-03-30T10:52:51.996Z,6.78
2023-03-30T10:55:33.715Z,7.10
2023-03-30T10:58:09.932Z,10.15
2023-03-30T11:00:51.282Z,4.07
2023-03-30T11:03:22.442Z,6.80
2023-03-30T11:05:51.910Z,4.38
2023-03-30T11:08:23.405Z,6.90
2023-03-30T11:10:54.032Z,8.90
2023-03-30T11:13:27.944Z,7.97
2023-03-30T11:15:57.573Z,7.95
2023-03-30T11:18:44.719Z,6.78
2023-03-30T11:21:22.212Z,12.82
2023-03-30T11:23:54.905Z,9.18
2023-03-30T11:26:34.903Z,8.15
2023-03-30T11:29:37.119Z,5.50
2023-03-30T11:32:38.609Z,10.18
2023-03-30T11:35:20.957Z,6.32
2023-03-30T11:38:01.786Z,7.70
2023-03-30T11:40:34.698Z,8.05
2023-03-30T11:43:01.880Z,6.32
2023-03-30T11:45:36.492Z,6.68
2023-03-30T11:48:13.409Z,6.32
2023-03-30T11:51:02.248Z,6.97
2023-03-30T11:53:35.783Z,6.95
2023-03-30T11:56:17.583Z,6.78
2023-03-30T11:58:48.058Z,7.28
2023-03-30T12:01:33.643Z,6.15
2023-03-30T12:04:08.499Z,9.05
2023-03-30T12:06:39.019Z,5.15
2023-03-30T12:09:06.216Z,6.53
2023-03-30T12:11:54.926Z,5.50
2023-03-30T12:14:43.242Z,4.45
2023-03-30T12:17:45.684Z,8.43
2023-03-30T12:20:22.178Z,4.07
2023-03-30T12:23:10.840Z,4.22
2023-03-30T12:26:04.183Z,4.18
2023-03-30T12:31:56.250Z,9.65
2023-03-30T12:34:24.683Z,5.20
2023-03-30T12:36:56.448Z,8.73
2023-03-30T12:39:31.341Z,11.75
2023-03-30T12:42:07.412Z,5.90
2023-03-30T12:44:42.977Z,9.88
2023-03-30T12:47:31.295Z,10.90
2023-03-30T12:50:02.666Z,4.82
2023-03-30T12:53:04.071Z,5.03
2023-03-30T12:55:41.949Z,5.85
2023-03-30T12:58:50.397Z,5.22
2023-03-30T13:01:40.491Z,7.15
2023-03-30T13:04:10.890Z,5.28
2023-03-30T13:06:40.772Z,4.22
2023-03-30T13:09:16.790Z,7.63
2023-03-30T13:11:46.342Z,7.57
2023-03-30T13:14:17.270Z,8.93
2023-03-30T13:16:53.492Z,5.38
2023-03-30T13:19:32.604Z,6.15
2023-03-30T13:22:11.910Z,8.45
2023-03-30T13:24:42.028Z,5.18
2023-03-30T13:27:14.823Z,7.00
2023-03-30T13:29:42.768Z,7.15
2023-03-30T13:32:20.778Z,7.68
2023-03-30T13:35:06.039Z,6.75
2023-03-30T13:38:01.701Z,5.70
2023-03-30T13:40:39.622Z,8.68
2023-03-30T13:43:22.634Z,10.50
2023-03-30T13:46:09.253Z,6.80
2023-03-30T13:48:47.582Z,7.93
2023-03-30T13:51:20.849Z,8.43
2023-03-30T13:53:53.357Z,5.60
2023-03-30T13:56:21.233Z,6.43
2023-03-30T13:59:03.908Z,2.95
2023-03-30T14:01:31.029Z,6.43
2023-03-30T14:04:03.909Z,6.13
2023-03-30T14:06:34.570Z,4.25
2023-03-30T14:09:05.690Z,6.40
2023-03-30T14:11:47.321Z,4.30
2023-03-30T14:14:30.028Z,6.82
2023-03-30T14:17:01.042Z,4.72
2023-03-30T14:19:29.843Z,5.95
2023-03-30T14:21:59.911Z,8.20
2023-03-30T14:24:34.682Z,5.72
2023-03-30T14:27:03.735Z,7.55
2023-03-30T14:29:32.495Z,5.57
2023-03-30T14:32:08.239Z,4.45
2023-03-30T14:34:36.244Z,4.25
2023-03-30T14:37:08.702Z,7.93
2023-03-30T14:39:41.248Z,4.72
2023-03-30T14:42:19.133Z,5.93
2023-03-30T14:44:48.487Z,9.27
2023-03-30T14:47:16.662Z,9.32
2023-03-30T14:49:44.494Z,7.55
2023-03-30T14:52:18.968Z,4.65
2023-03-30T14:54:58.157Z,3.80
2023-03-30T14:57:34.946Z,4.03
2023-03-30T15:00:11.341Z,4.72
2023-03-30T15:02:41.766Z,4.55
2023-03-30T15:05:09.306Z,7.80
2023-03-30T15:07:36.617Z,6.13
2023-03-30T15:10:04.470Z,4.32
2023-03-30T15:12:39.254Z,4.50
2023-03-30T15:15:08.540Z,5.53
2023-03-30T15:17:36.906Z,4.38
2023-03-30T15:20:07.596Z,7.43
2023-03-30T15:22:40.348Z,5.82
2023-03-30T15:25:11.673Z,6.95
2023-03-30T15:27:39.690Z,4.07
2023-03-30T15:30:21.871Z,3.97
2023-03-30T15:32:48.765Z,6.25
2023-03-30T15:35:15.428Z,5.68
2023-03-30T15:38:13.884Z,5.82
2023-03-30T15:40:43.294Z,4.28
2023-03-30T15:43:27.271Z,6.07
2023-03-30T15:46:15.584Z,6.50
2023-03-30T15:48:50.550Z,5.15
2023-03-30T15:51:27.588Z,3.80
2023-03-30T15:54:15.784Z,5.75
2023-03-30T15:57:11.359Z,6.32
2023-03-30T15:59:43.161Z,6.70
2023-03-30T16:02:40.274Z,3.85
2023-03-30T16:05:12.643Z,4.40
2023-03-30T16:07:42.136Z,6.10
2023-03-30T16:10:16.849Z,6.40
2023-03-30T16:12:44.947Z,5.55
2023-03-30T16:15:17.251Z,9.93
2023-03-30T16:17:44.037Z,8.30
2023-03-30T16:20:21.441Z,4.70
2023-03-30T16:22:48.624Z,4.03
2023-03-30T16:25:16.919Z,8.05
2023-03-30T16:27:44.255Z,5.22
2023-03-30T16:30:29.555Z,9.07
2023-03-30T16:32:56.540Z,5.55
2023-03-30T16:35:23.537Z,6.38
2023-03-30T16:37:50.750Z,6.28
2023-03-30T16:40:41.535Z,7.45
2023-03-30T16:43:09.643Z,4.38
2023-03-30T16:45:36.623Z,7.60
2023-03-30T16:48:03.790Z,9.32
2023-03-30T16:50:37.863Z,4.47
2023-03-30T16:53:05.860Z,5.50
2023-03-30T16:55:33.172Z,8.27
2023-03-30T16:57:59.999Z,9.00
2023-03-30T17:00:30.138Z,5.10
2023-03-30T17:02:57.294Z,5.78
2023-03-30T17:05:24.526Z,10.95
2023-03-30T17:07:55.113Z,10.13
2023-03-30T17:10:31.335Z,6.10
2023-03-30T17:12:58.336Z,6.95
2023-03-30T17:15:26.142Z,5.13
2023-03-30T17:17:53.775Z,5.53
2023-03-30T17:20:21.244Z,7.00
2023-03-30T17:22:48.749Z,10.18
2023-03-30T17:25:15.701Z,5.63
2023-03-30T17:27:43.198Z,7.55
2023-03-30T17:30:23.814Z,5.97
2023-03-30T17:32:51.328Z,9.15
2023-03-30T17:35:18.722Z,4.93
2023-03-30T17:37:46.208Z,7.05
2023-03-30T17:40:16.816Z,9.32
2023-03-30T17:42:44.164Z,8.43
2023-03-30T17:45:12.581Z,6.95
2023-03-30T17:47:41.560Z,7.70
2023-03-30T17:50:25.659Z,6.47
2023-03-30T17:52:53.513Z,11.77
2023-03-30T17:55:22.709Z,5.72
2023-03-30T17:57:49.637Z,6.63
2023-03-30T18:00:23.471Z,7.65
2023-03-30T18:02:51.938Z,7.03
2023-03-30T18:05:20.526Z,5.82
2023-03-30T18:07:47.874Z,5.85
2023-03-30T18:10:25.109Z,5.03
2023-03-30T18:12:52.951Z,8.48
2023-03-30T18:15:25.456Z,7.45
2023-03-30T18:17:53.024Z,8.07
2023-03-30T18:20:22.280Z,6.22
2023-03-30T18:22:51.415Z,6.30
2023-03-30T18:25:29.699Z,6.35
2023-03-30T18:28:00.871Z,6.28
2023-03-30T18:30:38.408Z,7.15
2023-03-30T18:33:05.811Z,6.75
2023-03-30T18:35:34.780Z,6.40
2023-03-30T18:38:02.435Z,6.97
2023-03-30T18:40:45.578Z,7.88
2023-03-30T18:43:13.725Z,8.90
2023-03-30T18:45:43.008Z,5.10
2023-03-30T18:48:14.707Z,10.48
2023-03-30T18:50:47.292Z,7.60
2023-03-30T18:53:26.398Z,6.38
2023-03-30T18:55:54.964Z,9.90
2023-03-30T18:58:24.441Z,7.72
2023-03-30T19:00:53.319Z,8.32
2023-03-30T19:03:21.863Z,7.85
2023-03-30T19:05:49.516Z,9.10
2023-03-30T19:08:18.884Z,9.70
2023-03-30T19:10:49.371Z,9.25
2023-03-30T19:13:18.543Z,6.80
2023-03-30T19:15:46.391Z,12.80
2023-03-30T19:18:14.084Z,9.00
2023-03-30T19:20:42.056Z,9.13
2023-03-30T19:23:11.885Z,6.70
2023-03-30T19:25:39.145Z,4.90
2023-03-30T19:28:06.788Z,5.38
2023-03-30T19:30:37.482Z,2.53
2023-03-30T19:33:12.410Z,3.83
2023-03-30T19:35:41.171Z,2.75
2023-03-30T19:38:09.685Z,3.13
2023-03-30T19:40:40.176Z,2.78
2023-03-30T19:43:07.955Z,1.80
2023-03-30T19:45:35.031Z,1.90
2023-03-30T19:48:02.073Z,1.92
2023-03-30T19:50:30.410Z,2.33
2023-03-30T19:52:57.734Z,0.80
2023-03-30T19:55:24.619Z,1.63
2023-03-30T19:57:51.509Z,2.40
2023-03-30T20:00:19.986Z,1.08
2023-03-30T20:02:49.602Z,2.92
2023-03-30T20:05:17.072Z,2.35
2023-03-30T20:07:44.913Z,3.40
2023-03-30T20:10:14.922Z,2.08
2023-03-30T20:12:42.318Z,3.25
2023-03-30T20:15:10.061Z,3.70
2023-03-30T20:17:38.964Z,2.95
2023-03-30T20:20:08.908Z,4.30
2023-03-30T20:22:37.011Z,1.13
2023-03-30T20:25:05.922Z,2.42
2023-03-30T20:27:33.961Z,1.73
2023-03-30T20:30:01.273Z,1.52
2023-03-30T20:32:28.409Z,3.33
2023-03-30T20:34:55.456Z,3.65
2023-03-30T20:37:22.386Z,1.48
2023-03-30T20:39:52.123Z,2.75
2023-03-30T20:42:26.492Z,4.78
2023-03-30T20:44:53.722Z,3.00
2023-03-30T20:47:26.261Z,3.53
2023-03-30T20:49:55.990Z,1.75
2023-03-30T20:52:24.140Z,2.70
2023-03-30T20:54:52.769Z,2.72
2023-03-30T20:57:20.913Z,3.95
2023-03-30T20:59:48.385Z,5.57
2023-03-30T21:02:15.888Z,3.67
2023-03-30T21:04:44.726Z,4.65
2023-03-30T21:07:12.516Z,3.78
2023-03-30T21:09:39.607Z,5.28
2023-03-30T21:12:07.960Z,5.60
2023-03-30T21:14:34.793Z,3.65
2023-03-30T21:17:01.949Z,5.15
2023-03-30T21:19:29.061Z,3.80
2023-03-30T21:21:56.056Z,2.15
2023-03-30T21:24:22.882Z,4.35
2023-03-30T21:26:51.053Z,4.97
2023-03-30T21:29:18.370Z,3.15
2023-03-30T21:31:45.327Z,3.75
2023-03-30T21:34:13.138Z,4.20
2023-03-30T21:36:41.175Z,5.47
2023-03-30T21:39:08.459Z,3.63
2023-03-30T21:41:35.470Z,5.55
2023-03-30T21:44:02.485Z,4.40
2023-03-30T21:46:29.394Z,4.78
2023-03-30T21:48:56.334Z,4.20
2023-03-30T21:51:28.720Z,4.68
2023-03-30T21:53:57.224Z,6.50
2023-03-30T21:56:26.316Z,7.72
2023-03-30T21:58:53.441Z,4.07
2023-03-30T22:01:20.965Z,5.28
2023-03-30T22:03:48.020Z,6.82
2023-03-30T22:06:17.452Z,4.57
2023-03-30T22:08:45.642Z,5.40
2023-03-30T22:11:14.721Z,6.30
2023-03-30T22:13:41.683Z,2.60
2023-03-30T22:16:22.764Z,5.45
2023-03-30T22:18:50.545Z,4.28
2023-03-30T22:21:24.777Z,4.28
2023-03-30T22:23:52.986Z,7.15
2023-03-30T22:26:19.957Z,5.47
2023-03-30T22:28:46.851Z,5.00
2023-03-30T22:31:15.173Z,8.75
2023-03-30T22:33:44.373Z,6.05
2023-03-30T22:36:20.683Z,6.20
2023-03-30T22:38:51.475Z,6.78
2023-03-30T22:41:24.074Z,5.88
2023-03-30T22:43:52.121Z,6.00
2023-03-30T22:46:19.095Z,4.68
2023-03-30T22:48:45.897Z,6.40
2023-03-30T22:51:14.515Z,8.80
2023-03-30T22:53:41.470Z,10.38
2023-03-30T22:56:08.549Z,4.75
2023-03-30T22:58:36.536Z,8.35
2023-03-30T23:01:07.269Z,5.53
2023-03-30T23:03:34.212Z,7.50
2023-03-30T23:06:01.935Z,6.88
2023-03-30T23:08:30.318Z,7.43
2023-03-30T23:10:57.713Z,6.38
2023-03-30T23:13:24.524Z,5.13
2023-03-30T23:15:52.244Z,5.57
2023-03-30T23:18:19.050Z,7.38
2023-03-30T23:20:46.934Z,4.93
2023-03-30T23:23:14.525Z,7.32
2023-03-30T23:25:49.590Z,6.40
2023-03-30T23:28:16.928Z,6.82
2023-03-30T23:30:45.124Z,9.23
2023-03-30T23:33:12.325Z,4.78
2023-03-30T23:35:40.336Z,6.55
2023-03-30T23:38:10.329Z,5.13
2023-03-30T23:40:37.132Z,4.43
2023-03-30T23:43:03.919Z,7.38
2023-03-30T23:45:30.683Z,6.63
2023-03-30T23:47:57.538Z,6.25
2023-03-30T23:50:25.334Z,5.57
2023-03-30T23:52:52.819Z,6.82
2023-03-30T23:55:19.656Z,4.18
2023-03-30T23:57:46.982Z,3.78
